<?xml version="1.0" encoding="UTF-8" standalone="no" ?>
<gpx xmlns="http://www.topografix.com/GPX/1/1" xmlns:xsi="http://www.w3.org/2001/XMLSchema-instance" xsi:schemaLocation="http://www.topografix.com/GPX/1/1 http://www.topografix.com/GPX/1/1/gpx.xsd" version="1.1" creator="VisuGPX - https://www.visugpx.com">
  <metadata>
    <name>Grottes et Aven de Siou Blanc</name>
    <desc><![CDATA[Sans difficultés]]></desc>
  </metadata>
  <wpt lat="43.23449" lon="5.92245">
    <ele>606.2</ele>
    <name><![CDATA[Aven du Palan]]></name>
  </wpt>
  <wpt lat="43.24367" lon="5.94686">
    <ele>562.5</ele>
    <name><![CDATA[Banane]]></name>
    <desc><![CDATA[Fußweg]]></desc>
    <cmt><![CDATA[Fußweg]]></cmt>
  </wpt>
  <wpt lat="43.23458" lon="5.92888">
    <ele>600.5</ele>
    <name><![CDATA[Carrefour de la boucle]]></name>
  </wpt>
  <wpt lat="43.24066" lon="5.96741">
    <ele>579.9</ele>
    <name><![CDATA[Carrefour GR51]]></name>
  </wpt>
  <wpt lat="43.23054" lon="5.93733">
    <ele>614.7</ele>
    <name><![CDATA[Carrefour grottes et avens]]></name>
  </wpt>
  <wpt lat="43.22608" lon="5.94601">
    <ele>613.9</ele>
    <name><![CDATA[Carrefour à 4 directions]]></name>
  </wpt>
  <wpt lat="43.23231" lon="5.9209">
    <ele>616.5</ele>
    <name><![CDATA[Citerne, à droite]]></name>
  </wpt>
  <wpt lat="43.23024" lon="5.92112">
    <ele>619.1</ele>
    <name><![CDATA[Parking Sioux Blanc]]></name>
  </wpt>
  <wpt lat="43.23715" lon="5.9597">
    <ele>728.5</ele>
    <name><![CDATA[Pas du Pilon]]></name>
  </wpt>
  <wpt lat="43.22762" lon="5.94763">
    <ele>597</ele>
    <name><![CDATA[Piste à traverser]]></name>
  </wpt>
  <wpt lat="43.23523" lon="5.92564">
    <ele>600.9</ele>
    <name><![CDATA[Piste, à droite]]></name>
  </wpt>
  <wpt lat="43.22423" lon="5.95563">
    <ele>645.9</ele>
    <name><![CDATA[Repas]]></name>
    <desc><![CDATA[Mischwald]]></desc>
    <cmt><![CDATA[Mischwald]]></cmt>
  </wpt>
  <wpt lat="43.2243" lon="5.95592">
    <ele>645.8</ele>
    <name><![CDATA[Secteur des grottes]]></name>
  </wpt>
  <wpt lat="43.2436" lon="5.9469">
    <ele>563.4</ele>
    <name><![CDATA[Sous les Bidoufles]]></name>
  </wpt>
  <wpt lat="43.22551" lon="5.95236">
    <ele>635</ele>
    <name><![CDATA[Troglodyte]]></name>
    <desc><![CDATA[Mischwald]]></desc>
    <cmt><![CDATA[Mischwald]]></cmt>
  </wpt>
  <trk>
    <name><![CDATA[2026-05-20-Siou-Blanc]]></name>
    <trkseg>
      <trkpt lat="43.23027" lon="5.9209">
        <ele>619</ele>
        <time>2026-05-20T06:57:11Z</time>
      </trkpt>
      <trkpt lat="43.23028" lon="5.92057">
        <ele>619</ele>
        <time>2026-05-20T06:57:44Z</time>
      </trkpt>
      <trkpt lat="43.23039" lon="5.92041">
        <ele>619.3</ele>
        <time>2026-05-20T06:58:57Z</time>
      </trkpt>
      <trkpt lat="43.23054" lon="5.92025">
        <ele>619.3</ele>
        <time>2026-05-20T06:59:23Z</time>
      </trkpt>
      <trkpt lat="43.23068" lon="5.92025">
        <ele>618.8</ele>
        <time>2026-05-20T07:00:37Z</time>
      </trkpt>
      <trkpt lat="43.23082" lon="5.92041">
        <ele>618.1</ele>
        <time>2026-05-20T07:00:58Z</time>
      </trkpt>
      <trkpt lat="43.231" lon="5.92048">
        <ele>617.4</ele>
        <time>2026-05-20T07:01:19Z</time>
      </trkpt>
      <trkpt lat="43.2312" lon="5.92055">
        <ele>616.7</ele>
        <time>2026-05-20T07:01:41Z</time>
      </trkpt>
      <trkpt lat="43.23137" lon="5.92064">
        <ele>616.1</ele>
        <time>2026-05-20T07:02:04Z</time>
      </trkpt>
      <trkpt lat="43.23162" lon="5.92067">
        <ele>616</ele>
        <time>2026-05-20T07:02:27Z</time>
      </trkpt>
      <trkpt lat="43.23185" lon="5.92072">
        <ele>616</ele>
        <time>2026-05-20T07:02:59Z</time>
      </trkpt>
      <trkpt lat="43.23204" lon="5.92081">
        <ele>616</ele>
        <time>2026-05-20T07:03:22Z</time>
      </trkpt>
      <trkpt lat="43.23221" lon="5.92093">
        <ele>616.3</ele>
        <time>2026-05-20T07:03:45Z</time>
      </trkpt>
      <trkpt lat="43.23241" lon="5.92097">
        <ele>616.8</ele>
        <time>2026-05-20T07:04:06Z</time>
      </trkpt>
      <trkpt lat="43.23262" lon="5.92096">
        <ele>616.2</ele>
        <time>2026-05-20T07:04:27Z</time>
      </trkpt>
      <trkpt lat="43.23282" lon="5.92101">
        <ele>614.8</ele>
        <time>2026-05-20T07:04:53Z</time>
      </trkpt>
      <trkpt lat="43.23301" lon="5.92113">
        <ele>614.2</ele>
        <time>2026-05-20T07:05:11Z</time>
      </trkpt>
      <trkpt lat="43.23318" lon="5.92129">
        <ele>613.6</ele>
        <time>2026-05-20T07:05:29Z</time>
      </trkpt>
      <trkpt lat="43.23333" lon="5.92123">
        <ele>612.6</ele>
        <time>2026-05-20T07:05:47Z</time>
      </trkpt>
      <trkpt lat="43.23352" lon="5.92122">
        <ele>610.8</ele>
        <time>2026-05-20T07:06:06Z</time>
      </trkpt>
      <trkpt lat="43.23373" lon="5.92133">
        <ele>609.6</ele>
        <time>2026-05-20T07:06:24Z</time>
      </trkpt>
      <trkpt lat="43.23391" lon="5.92143">
        <ele>608.9</ele>
        <time>2026-05-20T07:06:41Z</time>
      </trkpt>
      <trkpt lat="43.2341" lon="5.92154">
        <ele>608.2</ele>
        <time>2026-05-20T07:07:00Z</time>
      </trkpt>
      <trkpt lat="43.23417" lon="5.92179">
        <ele>607.2</ele>
        <time>2026-05-20T07:07:17Z</time>
      </trkpt>
      <trkpt lat="43.23417" lon="5.92206">
        <ele>606.1</ele>
        <time>2026-05-20T07:07:35Z</time>
      </trkpt>
      <trkpt lat="43.23431" lon="5.92225">
        <ele>606.6</ele>
        <time>2026-05-20T07:07:52Z</time>
      </trkpt>
      <trkpt lat="43.23447" lon="5.92241">
        <ele>606.3</ele>
        <time>2026-05-20T07:08:11Z</time>
      </trkpt>
      <trkpt lat="43.23467" lon="5.92249">
        <ele>606</ele>
        <time>2026-05-20T07:08:31Z</time>
      </trkpt>
      <trkpt lat="43.23486" lon="5.9224">
        <ele>606.2</ele>
        <time>2026-05-20T07:08:49Z</time>
      </trkpt>
      <trkpt lat="43.23507" lon="5.9224">
        <ele>606.1</ele>
        <time>2026-05-20T07:09:08Z</time>
      </trkpt>
      <trkpt lat="43.23527" lon="5.92256">
        <ele>605</ele>
        <time>2026-05-20T07:09:27Z</time>
      </trkpt>
      <trkpt lat="43.23538" lon="5.92279">
        <ele>605</ele>
        <time>2026-05-20T07:09:44Z</time>
      </trkpt>
      <trkpt lat="43.23533" lon="5.92307">
        <ele>604.2</ele>
        <time>2026-05-20T07:10:02Z</time>
      </trkpt>
      <trkpt lat="43.23523" lon="5.92331">
        <ele>604</ele>
        <time>2026-05-20T07:10:21Z</time>
      </trkpt>
      <trkpt lat="43.23512" lon="5.92358">
        <ele>604</ele>
        <time>2026-05-20T07:10:40Z</time>
      </trkpt>
      <trkpt lat="43.23504" lon="5.92385">
        <ele>604</ele>
        <time>2026-05-20T07:10:57Z</time>
      </trkpt>
      <trkpt lat="43.23495" lon="5.92408">
        <ele>603.1</ele>
        <time>2026-05-20T07:11:14Z</time>
      </trkpt>
      <trkpt lat="43.23488" lon="5.92434">
        <ele>602.5</ele>
        <time>2026-05-20T07:11:32Z</time>
      </trkpt>
      <trkpt lat="43.23483" lon="5.92462">
        <ele>602.2</ele>
        <time>2026-05-20T07:11:49Z</time>
      </trkpt>
      <trkpt lat="43.23489" lon="5.92487">
        <ele>602.3</ele>
        <time>2026-05-20T07:12:06Z</time>
      </trkpt>
      <trkpt lat="43.23505" lon="5.92498">
        <ele>602.9</ele>
        <time>2026-05-20T07:12:24Z</time>
      </trkpt>
      <trkpt lat="43.23518" lon="5.92517">
        <ele>602.4</ele>
        <time>2026-05-20T07:12:43Z</time>
      </trkpt>
      <trkpt lat="43.23521" lon="5.92544">
        <ele>601.6</ele>
        <time>2026-05-20T07:13:00Z</time>
      </trkpt>
      <trkpt lat="43.23528" lon="5.92569">
        <ele>600.5</ele>
        <time>2026-05-20T07:13:17Z</time>
      </trkpt>
      <trkpt lat="43.23535" lon="5.92596">
        <ele>600.3</ele>
        <time>2026-05-20T07:13:36Z</time>
      </trkpt>
      <trkpt lat="43.23534" lon="5.92616">
        <ele>601</ele>
        <time>2026-05-20T07:18:20Z</time>
      </trkpt>
      <trkpt lat="43.2354" lon="5.92646">
        <ele>604</ele>
        <time>2026-05-20T07:19:29Z</time>
      </trkpt>
      <trkpt lat="43.23546" lon="5.92673">
        <ele>604</ele>
        <time>2026-05-20T07:19:47Z</time>
      </trkpt>
      <trkpt lat="43.23557" lon="5.92696">
        <ele>602.8</ele>
        <time>2026-05-20T07:20:10Z</time>
      </trkpt>
      <trkpt lat="43.23573" lon="5.92709">
        <ele>602.5</ele>
        <time>2026-05-20T07:20:33Z</time>
      </trkpt>
      <trkpt lat="43.23561" lon="5.92728">
        <ele>599.2</ele>
        <time>2026-05-20T07:20:54Z</time>
      </trkpt>
      <trkpt lat="43.23548" lon="5.92745">
        <ele>597.2</ele>
        <time>2026-05-20T07:21:14Z</time>
      </trkpt>
      <trkpt lat="43.23536" lon="5.92766">
        <ele>595.9</ele>
        <time>2026-05-20T07:21:33Z</time>
      </trkpt>
      <trkpt lat="43.23523" lon="5.92791">
        <ele>596.4</ele>
        <time>2026-05-20T07:21:54Z</time>
      </trkpt>
      <trkpt lat="43.23511" lon="5.92815">
        <ele>598.3</ele>
        <time>2026-05-20T07:22:16Z</time>
      </trkpt>
      <trkpt lat="43.235" lon="5.92838">
        <ele>599.8</ele>
        <time>2026-05-20T07:22:37Z</time>
      </trkpt>
      <trkpt lat="43.23487" lon="5.92857">
        <ele>599.7</ele>
        <time>2026-05-20T07:22:56Z</time>
      </trkpt>
      <trkpt lat="43.2347" lon="5.92871">
        <ele>599.8</ele>
        <time>2026-05-20T07:23:16Z</time>
      </trkpt>
      <trkpt lat="43.2347" lon="5.929">
        <ele>600.9</ele>
        <time>2026-05-20T07:23:36Z</time>
      </trkpt>
      <trkpt lat="43.23482" lon="5.92925">
        <ele>601.5</ele>
        <time>2026-05-20T07:23:57Z</time>
      </trkpt>
      <trkpt lat="43.23496" lon="5.92947">
        <ele>604</ele>
        <time>2026-05-20T07:24:19Z</time>
      </trkpt>
      <trkpt lat="43.23515" lon="5.92961">
        <ele>605.5</ele>
        <time>2026-05-20T07:24:44Z</time>
      </trkpt>
      <trkpt lat="43.23541" lon="5.92967">
        <ele>605.4</ele>
        <time>2026-05-20T07:25:09Z</time>
      </trkpt>
      <trkpt lat="43.23561" lon="5.92981">
        <ele>605.8</ele>
        <time>2026-05-20T07:25:29Z</time>
      </trkpt>
      <trkpt lat="43.23577" lon="5.93001">
        <ele>605.7</ele>
        <time>2026-05-20T07:25:49Z</time>
      </trkpt>
      <trkpt lat="43.23591" lon="5.93021">
        <ele>607.1</ele>
        <time>2026-05-20T07:26:09Z</time>
      </trkpt>
      <trkpt lat="43.23612" lon="5.93036">
        <ele>607.9</ele>
        <time>2026-05-20T07:26:32Z</time>
      </trkpt>
      <trkpt lat="43.23628" lon="5.93059">
        <ele>610.3</ele>
        <time>2026-05-20T07:26:56Z</time>
      </trkpt>
      <trkpt lat="43.23639" lon="5.93083">
        <ele>611</ele>
        <time>2026-05-20T07:27:16Z</time>
      </trkpt>
      <trkpt lat="43.23655" lon="5.931">
        <ele>613.7</ele>
        <time>2026-05-20T07:27:37Z</time>
      </trkpt>
      <trkpt lat="43.23676" lon="5.93114">
        <ele>615.7</ele>
        <time>2026-05-20T07:28:06Z</time>
      </trkpt>
      <trkpt lat="43.23692" lon="5.93134">
        <ele>617.9</ele>
        <time>2026-05-20T07:28:27Z</time>
      </trkpt>
      <trkpt lat="43.237" lon="5.93158">
        <ele>618</ele>
        <time>2026-05-20T07:28:47Z</time>
      </trkpt>
      <trkpt lat="43.23707" lon="5.93185">
        <ele>617.1</ele>
        <time>2026-05-20T07:29:06Z</time>
      </trkpt>
      <trkpt lat="43.23714" lon="5.93204">
        <ele>616</ele>
        <time>2026-05-20T07:31:12Z</time>
      </trkpt>
      <trkpt lat="43.23721" lon="5.93231">
        <ele>614.3</ele>
        <time>2026-05-20T07:31:31Z</time>
      </trkpt>
      <trkpt lat="43.23731" lon="5.93254">
        <ele>614.2</ele>
        <time>2026-05-20T07:31:50Z</time>
      </trkpt>
      <trkpt lat="43.23739" lon="5.9328">
        <ele>614.8</ele>
        <time>2026-05-20T07:32:11Z</time>
      </trkpt>
      <trkpt lat="43.23735" lon="5.93306">
        <ele>615</ele>
        <time>2026-05-20T07:32:33Z</time>
      </trkpt>
      <trkpt lat="43.23734" lon="5.93334">
        <ele>615</ele>
        <time>2026-05-20T07:32:52Z</time>
      </trkpt>
      <trkpt lat="43.23739" lon="5.93359">
        <ele>615.9</ele>
        <time>2026-05-20T07:33:10Z</time>
      </trkpt>
      <trkpt lat="43.23743" lon="5.93387">
        <ele>616.2</ele>
        <time>2026-05-20T07:33:29Z</time>
      </trkpt>
      <trkpt lat="43.23738" lon="5.93411">
        <ele>616.5</ele>
        <time>2026-05-20T07:33:48Z</time>
      </trkpt>
      <trkpt lat="43.23728" lon="5.93427">
        <ele>616.6</ele>
        <time>2026-05-20T07:34:45Z</time>
      </trkpt>
      <trkpt lat="43.23718" lon="5.93447">
        <ele>617.2</ele>
        <time>2026-05-20T07:36:45Z</time>
      </trkpt>
      <trkpt lat="43.23705" lon="5.93465">
        <ele>617.9</ele>
        <time>2026-05-20T07:37:05Z</time>
      </trkpt>
      <trkpt lat="43.23696" lon="5.93495">
        <ele>618.1</ele>
        <time>2026-05-20T07:37:28Z</time>
      </trkpt>
      <trkpt lat="43.23684" lon="5.93517">
        <ele>619.6</ele>
        <time>2026-05-20T07:37:48Z</time>
      </trkpt>
      <trkpt lat="43.23674" lon="5.93541">
        <ele>620.6</ele>
        <time>2026-05-20T07:38:09Z</time>
      </trkpt>
      <trkpt lat="43.23672" lon="5.93571">
        <ele>621.3</ele>
        <time>2026-05-20T07:38:29Z</time>
      </trkpt>
      <trkpt lat="43.23667" lon="5.93597">
        <ele>622</ele>
        <time>2026-05-20T07:38:49Z</time>
      </trkpt>
      <trkpt lat="43.23672" lon="5.93623">
        <ele>623.6</ele>
        <time>2026-05-20T07:39:09Z</time>
      </trkpt>
      <trkpt lat="43.23677" lon="5.93648">
        <ele>624.6</ele>
        <time>2026-05-20T07:39:28Z</time>
      </trkpt>
      <trkpt lat="43.23693" lon="5.93661">
        <ele>625</ele>
        <time>2026-05-20T07:39:49Z</time>
      </trkpt>
      <trkpt lat="43.23703" lon="5.93681">
        <ele>625.8</ele>
        <time>2026-05-20T07:40:09Z</time>
      </trkpt>
      <trkpt lat="43.23707" lon="5.93706">
        <ele>626</ele>
        <time>2026-05-20T07:40:28Z</time>
      </trkpt>
      <trkpt lat="43.23718" lon="5.93727">
        <ele>626</ele>
        <time>2026-05-20T07:40:47Z</time>
      </trkpt>
      <trkpt lat="43.23735" lon="5.93748">
        <ele>625.5</ele>
        <time>2026-05-20T07:41:08Z</time>
      </trkpt>
      <trkpt lat="43.23751" lon="5.93766">
        <ele>625.6</ele>
        <time>2026-05-20T07:41:27Z</time>
      </trkpt>
      <trkpt lat="43.23769" lon="5.93778">
        <ele>625.3</ele>
        <time>2026-05-20T07:41:48Z</time>
      </trkpt>
      <trkpt lat="43.23792" lon="5.93781">
        <ele>625</ele>
        <time>2026-05-20T07:42:15Z</time>
      </trkpt>
      <trkpt lat="43.23814" lon="5.9378">
        <ele>625</ele>
        <time>2026-05-20T07:42:38Z</time>
      </trkpt>
      <trkpt lat="43.23834" lon="5.93779">
        <ele>625</ele>
        <time>2026-05-20T07:42:59Z</time>
      </trkpt>
      <trkpt lat="43.23854" lon="5.93794">
        <ele>626.1</ele>
        <time>2026-05-20T07:43:19Z</time>
      </trkpt>
      <trkpt lat="43.23872" lon="5.93809">
        <ele>627.9</ele>
        <time>2026-05-20T07:43:41Z</time>
      </trkpt>
      <trkpt lat="43.23893" lon="5.93807">
        <ele>629.2</ele>
        <time>2026-05-20T07:44:04Z</time>
      </trkpt>
      <trkpt lat="43.23917" lon="5.93814">
        <ele>630.6</ele>
        <time>2026-05-20T07:44:31Z</time>
      </trkpt>
      <trkpt lat="43.23937" lon="5.93819">
        <ele>631.3</ele>
        <time>2026-05-20T07:44:52Z</time>
      </trkpt>
      <trkpt lat="43.23958" lon="5.93815">
        <ele>631.3</ele>
        <time>2026-05-20T07:45:13Z</time>
      </trkpt>
      <trkpt lat="43.23979" lon="5.93813">
        <ele>631.1</ele>
        <time>2026-05-20T07:45:34Z</time>
      </trkpt>
      <trkpt lat="43.24001" lon="5.93815">
        <ele>630.5</ele>
        <time>2026-05-20T07:45:54Z</time>
      </trkpt>
      <trkpt lat="43.24019" lon="5.93814">
        <ele>629.1</ele>
        <time>2026-05-20T07:46:15Z</time>
      </trkpt>
      <trkpt lat="43.2404" lon="5.93802">
        <ele>627</ele>
        <time>2026-05-20T07:46:37Z</time>
      </trkpt>
      <trkpt lat="43.24058" lon="5.93789">
        <ele>625.4</ele>
        <time>2026-05-20T07:46:58Z</time>
      </trkpt>
      <trkpt lat="43.24075" lon="5.93775">
        <ele>623.7</ele>
        <time>2026-05-20T07:47:19Z</time>
      </trkpt>
      <trkpt lat="43.24093" lon="5.93757">
        <ele>622.6</ele>
        <time>2026-05-20T07:47:41Z</time>
      </trkpt>
      <trkpt lat="43.24095" lon="5.93777">
        <ele>619.2</ele>
        <time>2026-05-20T07:48:07Z</time>
      </trkpt>
      <trkpt lat="43.24083" lon="5.93798">
        <ele>618.6</ele>
        <time>2026-05-20T07:48:28Z</time>
      </trkpt>
      <trkpt lat="43.24087" lon="5.93824">
        <ele>617</ele>
        <time>2026-05-20T07:48:48Z</time>
      </trkpt>
      <trkpt lat="43.24105" lon="5.93831">
        <ele>614.6</ele>
        <time>2026-05-20T07:49:11Z</time>
      </trkpt>
      <trkpt lat="43.24125" lon="5.93833">
        <ele>612.4</ele>
        <time>2026-05-20T07:49:33Z</time>
      </trkpt>
      <trkpt lat="43.24148" lon="5.9384">
        <ele>610.2</ele>
        <time>2026-05-20T07:49:59Z</time>
      </trkpt>
      <trkpt lat="43.24165" lon="5.93861">
        <ele>609.4</ele>
        <time>2026-05-20T07:50:19Z</time>
      </trkpt>
      <trkpt lat="43.24179" lon="5.93885">
        <ele>608.2</ele>
        <time>2026-05-20T07:50:38Z</time>
      </trkpt>
      <trkpt lat="43.24193" lon="5.93907">
        <ele>607.7</ele>
        <time>2026-05-20T07:50:57Z</time>
      </trkpt>
      <trkpt lat="43.24203" lon="5.9393">
        <ele>608.4</ele>
        <time>2026-05-20T07:51:15Z</time>
      </trkpt>
      <trkpt lat="43.24217" lon="5.93951">
        <ele>608.2</ele>
        <time>2026-05-20T07:51:34Z</time>
      </trkpt>
      <trkpt lat="43.24233" lon="5.9397">
        <ele>606.2</ele>
        <time>2026-05-20T07:51:53Z</time>
      </trkpt>
      <trkpt lat="43.24246" lon="5.93992">
        <ele>606.8</ele>
        <time>2026-05-20T07:52:11Z</time>
      </trkpt>
      <trkpt lat="43.24256" lon="5.94016">
        <ele>606.9</ele>
        <time>2026-05-20T07:52:29Z</time>
      </trkpt>
      <trkpt lat="43.24266" lon="5.94039">
        <ele>607.3</ele>
        <time>2026-05-20T07:52:47Z</time>
      </trkpt>
      <trkpt lat="43.24279" lon="5.9406">
        <ele>606.4</ele>
        <time>2026-05-20T07:53:06Z</time>
      </trkpt>
      <trkpt lat="43.24292" lon="5.94082">
        <ele>605.2</ele>
        <time>2026-05-20T07:53:26Z</time>
      </trkpt>
      <trkpt lat="43.24303" lon="5.94104">
        <ele>603.4</ele>
        <time>2026-05-20T07:53:44Z</time>
      </trkpt>
      <trkpt lat="43.24315" lon="5.94126">
        <ele>602.3</ele>
        <time>2026-05-20T07:54:04Z</time>
      </trkpt>
      <trkpt lat="43.24327" lon="5.94149">
        <ele>601.2</ele>
        <time>2026-05-20T07:54:24Z</time>
      </trkpt>
      <trkpt lat="43.24338" lon="5.94172">
        <ele>599.6</ele>
        <time>2026-05-20T07:54:44Z</time>
      </trkpt>
      <trkpt lat="43.24351" lon="5.94194">
        <ele>598.8</ele>
        <time>2026-05-20T07:55:04Z</time>
      </trkpt>
      <trkpt lat="43.24364" lon="5.94214">
        <ele>597.5</ele>
        <time>2026-05-20T07:55:23Z</time>
      </trkpt>
      <trkpt lat="43.24375" lon="5.94237">
        <ele>597</ele>
        <time>2026-05-20T07:55:43Z</time>
      </trkpt>
      <trkpt lat="43.24378" lon="5.94265">
        <ele>596</ele>
        <time>2026-05-20T07:56:04Z</time>
      </trkpt>
      <trkpt lat="43.24378" lon="5.94294">
        <ele>595.1</ele>
        <time>2026-05-20T07:56:24Z</time>
      </trkpt>
      <trkpt lat="43.2438" lon="5.94322">
        <ele>594.5</ele>
        <time>2026-05-20T07:56:45Z</time>
      </trkpt>
      <trkpt lat="43.24385" lon="5.94349">
        <ele>593.7</ele>
        <time>2026-05-20T07:57:04Z</time>
      </trkpt>
      <trkpt lat="43.24386" lon="5.94378">
        <ele>592</ele>
        <time>2026-05-20T07:57:25Z</time>
      </trkpt>
      <trkpt lat="43.24384" lon="5.94407">
        <ele>590.8</ele>
        <time>2026-05-20T07:57:47Z</time>
      </trkpt>
      <trkpt lat="43.24378" lon="5.94434">
        <ele>589.3</ele>
        <time>2026-05-20T07:58:07Z</time>
      </trkpt>
      <trkpt lat="43.24374" lon="5.94462">
        <ele>586.6</ele>
        <time>2026-05-20T07:58:29Z</time>
      </trkpt>
      <trkpt lat="43.24372" lon="5.94492">
        <ele>582.7</ele>
        <time>2026-05-20T07:58:53Z</time>
      </trkpt>
      <trkpt lat="43.24368" lon="5.94519">
        <ele>579.2</ele>
        <time>2026-05-20T07:59:15Z</time>
      </trkpt>
      <trkpt lat="43.24365" lon="5.94547">
        <ele>575.5</ele>
        <time>2026-05-20T07:59:37Z</time>
      </trkpt>
      <trkpt lat="43.24361" lon="5.94576">
        <ele>572.7</ele>
        <time>2026-05-20T08:00:02Z</time>
      </trkpt>
      <trkpt lat="43.24358" lon="5.94603">
        <ele>570.2</ele>
        <time>2026-05-20T08:01:40Z</time>
      </trkpt>
      <trkpt lat="43.24354" lon="5.94633">
        <ele>567.5</ele>
        <time>2026-05-20T08:02:03Z</time>
      </trkpt>
      <trkpt lat="43.24359" lon="5.94663">
        <ele>564</ele>
        <time>2026-05-20T08:02:28Z</time>
      </trkpt>
      <trkpt lat="43.24367" lon="5.94686">
        <ele>562.5</ele>
        <time>2026-05-20T08:17:31Z</time>
      </trkpt>
      <trkpt lat="43.24366" lon="5.94714">
        <ele>563</ele>
        <time>2026-05-20T08:18:20Z</time>
      </trkpt>
      <trkpt lat="43.24364" lon="5.94749">
        <ele>565</ele>
        <time>2026-05-20T08:18:52Z</time>
      </trkpt>
      <trkpt lat="43.2436" lon="5.94783">
        <ele>566.3</ele>
        <time>2026-05-20T08:19:19Z</time>
      </trkpt>
      <trkpt lat="43.24356" lon="5.94816">
        <ele>568</ele>
        <time>2026-05-20T08:19:46Z</time>
      </trkpt>
      <trkpt lat="43.24345" lon="5.94844">
        <ele>570.1</ele>
        <time>2026-05-20T08:20:13Z</time>
      </trkpt>
      <trkpt lat="43.24346" lon="5.94881">
        <ele>571.6</ele>
        <time>2026-05-20T08:20:42Z</time>
      </trkpt>
      <trkpt lat="43.24349" lon="5.94921">
        <ele>574</ele>
        <time>2026-05-20T08:21:15Z</time>
      </trkpt>
      <trkpt lat="43.24344" lon="5.94956">
        <ele>574.3</ele>
        <time>2026-05-20T08:21:45Z</time>
      </trkpt>
      <trkpt lat="43.24344" lon="5.94992">
        <ele>572.5</ele>
        <time>2026-05-20T08:22:15Z</time>
      </trkpt>
      <trkpt lat="43.24344" lon="5.95027">
        <ele>570.4</ele>
        <time>2026-05-20T08:22:42Z</time>
      </trkpt>
      <trkpt lat="43.24349" lon="5.95065">
        <ele>570.2</ele>
        <time>2026-05-20T08:23:11Z</time>
      </trkpt>
      <trkpt lat="43.24363" lon="5.95095">
        <ele>570.8</ele>
        <time>2026-05-20T08:23:37Z</time>
      </trkpt>
      <trkpt lat="43.24383" lon="5.95119">
        <ele>571.2</ele>
        <time>2026-05-20T08:24:08Z</time>
      </trkpt>
      <trkpt lat="43.24401" lon="5.95145">
        <ele>570.2</ele>
        <time>2026-05-20T08:24:37Z</time>
      </trkpt>
      <trkpt lat="43.2442" lon="5.95171">
        <ele>568.7</ele>
        <time>2026-05-20T08:25:05Z</time>
      </trkpt>
      <trkpt lat="43.24432" lon="5.95201">
        <ele>567.6</ele>
        <time>2026-05-20T08:25:31Z</time>
      </trkpt>
      <trkpt lat="43.24442" lon="5.95229">
        <ele>564.6</ele>
        <time>2026-05-20T08:26:02Z</time>
      </trkpt>
      <trkpt lat="43.24443" lon="5.95261">
        <ele>563.4</ele>
        <time>2026-05-20T08:26:28Z</time>
      </trkpt>
      <trkpt lat="43.24435" lon="5.95289">
        <ele>562.7</ele>
        <time>2026-05-20T08:26:49Z</time>
      </trkpt>
      <trkpt lat="43.24428" lon="5.95322">
        <ele>561.8</ele>
        <time>2026-05-20T08:27:18Z</time>
      </trkpt>
      <trkpt lat="43.24424" lon="5.95356">
        <ele>559.8</ele>
        <time>2026-05-20T08:27:46Z</time>
      </trkpt>
      <trkpt lat="43.24416" lon="5.95387">
        <ele>558.3</ele>
        <time>2026-05-20T08:28:12Z</time>
      </trkpt>
      <trkpt lat="43.2441" lon="5.95422">
        <ele>557</ele>
        <time>2026-05-20T08:28:47Z</time>
      </trkpt>
      <trkpt lat="43.24405" lon="5.95455">
        <ele>555.6</ele>
        <time>2026-05-20T08:29:14Z</time>
      </trkpt>
      <trkpt lat="43.24403" lon="5.9549">
        <ele>554.7</ele>
        <time>2026-05-20T08:29:40Z</time>
      </trkpt>
      <trkpt lat="43.24402" lon="5.9553">
        <ele>553.4</ele>
        <time>2026-05-20T08:30:10Z</time>
      </trkpt>
      <trkpt lat="43.24401" lon="5.95569">
        <ele>549.8</ele>
        <time>2026-05-20T08:30:46Z</time>
      </trkpt>
      <trkpt lat="43.24383" lon="5.95586">
        <ele>550.6</ele>
        <time>2026-05-20T08:31:11Z</time>
      </trkpt>
      <trkpt lat="43.24372" lon="5.95622">
        <ele>548.8</ele>
        <time>2026-05-20T08:31:40Z</time>
      </trkpt>
      <trkpt lat="43.24364" lon="5.95661">
        <ele>549.7</ele>
        <time>2026-05-20T08:32:02Z</time>
      </trkpt>
      <trkpt lat="43.24358" lon="5.95692">
        <ele>548</ele>
        <time>2026-05-20T08:32:24Z</time>
      </trkpt>
      <trkpt lat="43.24342" lon="5.9572">
        <ele>551.6</ele>
        <time>2026-05-20T08:34:09Z</time>
      </trkpt>
      <trkpt lat="43.24331" lon="5.95757">
        <ele>557</ele>
        <time>2026-05-20T08:34:47Z</time>
      </trkpt>
      <trkpt lat="43.24321" lon="5.95789">
        <ele>562.2</ele>
        <time>2026-05-20T08:35:25Z</time>
      </trkpt>
      <trkpt lat="43.24322" lon="5.95826">
        <ele>565.2</ele>
        <time>2026-05-20T08:36:00Z</time>
      </trkpt>
      <trkpt lat="43.24314" lon="5.95859">
        <ele>568</ele>
        <time>2026-05-20T08:36:37Z</time>
      </trkpt>
      <trkpt lat="43.24309" lon="5.9589">
        <ele>566.6</ele>
        <time>2026-05-20T08:37:05Z</time>
      </trkpt>
      <trkpt lat="43.24301" lon="5.95917">
        <ele>567.3</ele>
        <time>2026-05-20T08:37:26Z</time>
      </trkpt>
      <trkpt lat="43.24295" lon="5.95945">
        <ele>566.7</ele>
        <time>2026-05-20T08:37:46Z</time>
      </trkpt>
      <trkpt lat="43.24286" lon="5.95972">
        <ele>566.6</ele>
        <time>2026-05-20T08:38:08Z</time>
      </trkpt>
      <trkpt lat="43.24272" lon="5.96">
        <ele>569</ele>
        <time>2026-05-20T08:38:38Z</time>
      </trkpt>
      <trkpt lat="43.24261" lon="5.96031">
        <ele>571</ele>
        <time>2026-05-20T08:39:02Z</time>
      </trkpt>
      <trkpt lat="43.24244" lon="5.96058">
        <ele>575.2</ele>
        <time>2026-05-20T08:39:42Z</time>
      </trkpt>
      <trkpt lat="43.24225" lon="5.96079">
        <ele>576.3</ele>
        <time>2026-05-20T08:40:24Z</time>
      </trkpt>
      <trkpt lat="43.24211" lon="5.9611">
        <ele>575.7</ele>
        <time>2026-05-20T08:41:02Z</time>
      </trkpt>
      <trkpt lat="43.24195" lon="5.96129">
        <ele>578</ele>
        <time>2026-05-20T08:41:24Z</time>
      </trkpt>
      <trkpt lat="43.24187" lon="5.96166">
        <ele>581.5</ele>
        <time>2026-05-20T08:42:01Z</time>
      </trkpt>
      <trkpt lat="43.24189" lon="5.96196">
        <ele>579.3</ele>
        <time>2026-05-20T08:42:24Z</time>
      </trkpt>
      <trkpt lat="43.24203" lon="5.96203">
        <ele>575.2</ele>
        <time>2026-05-20T08:46:29Z</time>
      </trkpt>
      <trkpt lat="43.24189" lon="5.96202">
        <ele>578.8</ele>
        <time>2026-05-20T08:47:21Z</time>
      </trkpt>
      <trkpt lat="43.24177" lon="5.96223">
        <ele>577.4</ele>
        <time>2026-05-20T08:47:49Z</time>
      </trkpt>
      <trkpt lat="43.24168" lon="5.96263">
        <ele>575.3</ele>
        <time>2026-05-20T08:48:30Z</time>
      </trkpt>
      <trkpt lat="43.24166" lon="5.96296">
        <ele>577</ele>
        <time>2026-05-20T08:48:59Z</time>
      </trkpt>
      <trkpt lat="43.24166" lon="5.96329">
        <ele>577.3</ele>
        <time>2026-05-20T08:49:25Z</time>
      </trkpt>
      <trkpt lat="43.24164" lon="5.96363">
        <ele>577.7</ele>
        <time>2026-05-20T08:49:52Z</time>
      </trkpt>
      <trkpt lat="43.24164" lon="5.96393">
        <ele>577.8</ele>
        <time>2026-05-20T08:50:12Z</time>
      </trkpt>
      <trkpt lat="43.2416" lon="5.96424">
        <ele>578.7</ele>
        <time>2026-05-20T08:50:40Z</time>
      </trkpt>
      <trkpt lat="43.24154" lon="5.96461">
        <ele>578.4</ele>
        <time>2026-05-20T08:51:09Z</time>
      </trkpt>
      <trkpt lat="43.24144" lon="5.965">
        <ele>579.2</ele>
        <time>2026-05-20T08:51:42Z</time>
      </trkpt>
      <trkpt lat="43.24134" lon="5.96532">
        <ele>581.1</ele>
        <time>2026-05-20T08:52:07Z</time>
      </trkpt>
      <trkpt lat="43.24128" lon="5.96564">
        <ele>580</ele>
        <time>2026-05-20T08:52:32Z</time>
      </trkpt>
      <trkpt lat="43.24118" lon="5.96599">
        <ele>579.7</ele>
        <time>2026-05-20T08:53:02Z</time>
      </trkpt>
      <trkpt lat="43.24102" lon="5.96629">
        <ele>580.6</ele>
        <time>2026-05-20T08:53:35Z</time>
      </trkpt>
      <trkpt lat="43.24089" lon="5.96667">
        <ele>577.3</ele>
        <time>2026-05-20T08:54:23Z</time>
      </trkpt>
      <trkpt lat="43.24069" lon="5.96696">
        <ele>576.3</ele>
        <time>2026-05-20T08:55:05Z</time>
      </trkpt>
      <trkpt lat="43.24056" lon="5.96716">
        <ele>581.8</ele>
        <time>2026-05-20T08:58:51Z</time>
      </trkpt>
      <trkpt lat="43.2404" lon="5.96694">
        <ele>588.8</ele>
        <time>2026-05-20T09:00:18Z</time>
      </trkpt>
      <trkpt lat="43.24043" lon="5.96665">
        <ele>590.1</ele>
        <time>2026-05-20T09:01:27Z</time>
      </trkpt>
      <trkpt lat="43.24004" lon="5.9664">
        <ele>601.1</ele>
        <time>2026-05-20T09:03:26Z</time>
      </trkpt>
      <trkpt lat="43.23972" lon="5.96586">
        <ele>612</ele>
        <time>2026-05-20T09:05:25Z</time>
      </trkpt>
      <trkpt lat="43.23941" lon="5.96521">
        <ele>629.1</ele>
        <time>2026-05-20T09:07:37Z</time>
      </trkpt>
      <trkpt lat="43.23944" lon="5.96483">
        <ele>633.7</ele>
        <time>2026-05-20T09:08:44Z</time>
      </trkpt>
      <trkpt lat="43.23952" lon="5.9645">
        <ele>634.2</ele>
        <time>2026-05-20T09:11:22Z</time>
      </trkpt>
      <trkpt lat="43.23921" lon="5.96394">
        <ele>643.2</ele>
        <time>2026-05-20T09:12:24Z</time>
      </trkpt>
      <trkpt lat="43.23905" lon="5.96317">
        <ele>657.2</ele>
        <time>2026-05-20T09:14:14Z</time>
      </trkpt>
      <trkpt lat="43.23868" lon="5.96273">
        <ele>670.3</ele>
        <time>2026-05-20T09:15:53Z</time>
      </trkpt>
      <trkpt lat="43.23832" lon="5.96234">
        <ele>683.4</ele>
        <time>2026-05-20T09:17:47Z</time>
      </trkpt>
      <trkpt lat="43.23803" lon="5.96191">
        <ele>693.8</ele>
        <time>2026-05-20T09:19:28Z</time>
      </trkpt>
      <trkpt lat="43.23767" lon="5.96103">
        <ele>708.9</ele>
        <time>2026-05-20T09:21:29Z</time>
      </trkpt>
      <trkpt lat="43.23744" lon="5.96038">
        <ele>718.4</ele>
        <time>2026-05-20T09:23:28Z</time>
      </trkpt>
      <trkpt lat="43.23712" lon="5.95974">
        <ele>728.2</ele>
        <time>2026-05-20T09:25:10Z</time>
      </trkpt>
      <trkpt lat="43.23695" lon="5.95999">
        <ele>727.9</ele>
        <time>2026-05-20T09:30:56Z</time>
      </trkpt>
      <trkpt lat="43.23687" lon="5.96024">
        <ele>728.6</ele>
        <time>2026-05-20T09:31:24Z</time>
      </trkpt>
      <trkpt lat="43.23675" lon="5.96049">
        <ele>728.3</ele>
        <time>2026-05-20T09:32:04Z</time>
      </trkpt>
      <trkpt lat="43.2365" lon="5.96062">
        <ele>727.3</ele>
        <time>2026-05-20T09:32:54Z</time>
      </trkpt>
      <trkpt lat="43.23637" lon="5.96073">
        <ele>726.9</ele>
        <time>2026-05-20T09:33:38Z</time>
      </trkpt>
      <trkpt lat="43.23622" lon="5.96071">
        <ele>726.4</ele>
        <time>2026-05-20T09:34:21Z</time>
      </trkpt>
      <trkpt lat="43.23602" lon="5.96073">
        <ele>726.3</ele>
        <time>2026-05-20T09:34:56Z</time>
      </trkpt>
      <trkpt lat="43.23592" lon="5.961">
        <ele>726.1</ele>
        <time>2026-05-20T09:35:30Z</time>
      </trkpt>
      <trkpt lat="43.23589" lon="5.96132">
        <ele>724.6</ele>
        <time>2026-05-20T09:36:08Z</time>
      </trkpt>
      <trkpt lat="43.2358" lon="5.96167">
        <ele>723.4</ele>
        <time>2026-05-20T09:36:58Z</time>
      </trkpt>
      <trkpt lat="43.2357" lon="5.96197">
        <ele>721.2</ele>
        <time>2026-05-20T09:37:34Z</time>
      </trkpt>
      <trkpt lat="43.23554" lon="5.96215">
        <ele>719.9</ele>
        <time>2026-05-20T09:38:01Z</time>
      </trkpt>
      <trkpt lat="43.23533" lon="5.96222">
        <ele>718.1</ele>
        <time>2026-05-20T09:38:37Z</time>
      </trkpt>
      <trkpt lat="43.23514" lon="5.96234">
        <ele>714.7</ele>
        <time>2026-05-20T09:39:25Z</time>
      </trkpt>
      <trkpt lat="43.23503" lon="5.96245">
        <ele>713.4</ele>
        <time>2026-05-20T09:40:19Z</time>
      </trkpt>
      <trkpt lat="43.23491" lon="5.96251">
        <ele>712.6</ele>
        <time>2026-05-20T09:41:55Z</time>
      </trkpt>
      <trkpt lat="43.23466" lon="5.9627">
        <ele>708.9</ele>
        <time>2026-05-20T09:42:49Z</time>
      </trkpt>
      <trkpt lat="43.23437" lon="5.96285">
        <ele>706.6</ele>
        <time>2026-05-20T09:43:46Z</time>
      </trkpt>
      <trkpt lat="43.23415" lon="5.96306">
        <ele>708.8</ele>
        <time>2026-05-20T09:44:45Z</time>
      </trkpt>
      <trkpt lat="43.23395" lon="5.96304">
        <ele>705.8</ele>
        <time>2026-05-20T09:45:19Z</time>
      </trkpt>
      <trkpt lat="43.23376" lon="5.96292">
        <ele>702.1</ele>
        <time>2026-05-20T09:46:18Z</time>
      </trkpt>
      <trkpt lat="43.23352" lon="5.96277">
        <ele>698.4</ele>
        <time>2026-05-20T09:47:17Z</time>
      </trkpt>
      <trkpt lat="43.23333" lon="5.96264">
        <ele>697.5</ele>
        <time>2026-05-20T09:47:52Z</time>
      </trkpt>
      <trkpt lat="43.2331" lon="5.96263">
        <ele>695.8</ele>
        <time>2026-05-20T09:48:58Z</time>
      </trkpt>
      <trkpt lat="43.23299" lon="5.96242">
        <ele>695.3</ele>
        <time>2026-05-20T09:49:45Z</time>
      </trkpt>
      <trkpt lat="43.23289" lon="5.96208">
        <ele>694.7</ele>
        <time>2026-05-20T09:50:48Z</time>
      </trkpt>
      <trkpt lat="43.23284" lon="5.96171">
        <ele>693.8</ele>
        <time>2026-05-20T09:51:34Z</time>
      </trkpt>
      <trkpt lat="43.23278" lon="5.96127">
        <ele>696.9</ele>
        <time>2026-05-20T09:52:21Z</time>
      </trkpt>
      <trkpt lat="43.2327" lon="5.96095">
        <ele>697.2</ele>
        <time>2026-05-20T09:52:50Z</time>
      </trkpt>
      <trkpt lat="43.23255" lon="5.96079">
        <ele>696.2</ele>
        <time>2026-05-20T09:53:24Z</time>
      </trkpt>
      <trkpt lat="43.23236" lon="5.96065">
        <ele>695.3</ele>
        <time>2026-05-20T09:53:54Z</time>
      </trkpt>
      <trkpt lat="43.23215" lon="5.96068">
        <ele>694.1</ele>
        <time>2026-05-20T09:54:28Z</time>
      </trkpt>
      <trkpt lat="43.23196" lon="5.96055">
        <ele>693.1</ele>
        <time>2026-05-20T09:54:56Z</time>
      </trkpt>
      <trkpt lat="43.23174" lon="5.96056">
        <ele>691.6</ele>
        <time>2026-05-20T09:55:28Z</time>
      </trkpt>
      <trkpt lat="43.23151" lon="5.96072">
        <ele>690.4</ele>
        <time>2026-05-20T09:56:02Z</time>
      </trkpt>
      <trkpt lat="43.23139" lon="5.96047">
        <ele>691</ele>
        <time>2026-05-20T09:56:29Z</time>
      </trkpt>
      <trkpt lat="43.23128" lon="5.96025">
        <ele>691.3</ele>
        <time>2026-05-20T09:56:55Z</time>
      </trkpt>
      <trkpt lat="43.23115" lon="5.96002">
        <ele>690.3</ele>
        <time>2026-05-20T09:57:26Z</time>
      </trkpt>
      <trkpt lat="43.231" lon="5.95987">
        <ele>688.9</ele>
        <time>2026-05-20T09:57:54Z</time>
      </trkpt>
      <trkpt lat="43.23086" lon="5.95969">
        <ele>686.9</ele>
        <time>2026-05-20T09:58:23Z</time>
      </trkpt>
      <trkpt lat="43.2308" lon="5.95943">
        <ele>683.7</ele>
        <time>2026-05-20T09:58:53Z</time>
      </trkpt>
      <trkpt lat="43.23071" lon="5.95919">
        <ele>681.7</ele>
        <time>2026-05-20T09:59:31Z</time>
      </trkpt>
      <trkpt lat="43.23054" lon="5.95902">
        <ele>680.3</ele>
        <time>2026-05-20T09:59:58Z</time>
      </trkpt>
      <trkpt lat="43.23035" lon="5.95891">
        <ele>678.6</ele>
        <time>2026-05-20T10:00:43Z</time>
      </trkpt>
      <trkpt lat="43.23015" lon="5.95888">
        <ele>677.2</ele>
        <time>2026-05-20T10:01:14Z</time>
      </trkpt>
      <trkpt lat="43.22995" lon="5.95886">
        <ele>675.6</ele>
        <time>2026-05-20T10:01:50Z</time>
      </trkpt>
      <trkpt lat="43.22975" lon="5.9589">
        <ele>673.3</ele>
        <time>2026-05-20T10:02:25Z</time>
      </trkpt>
      <trkpt lat="43.22953" lon="5.95891">
        <ele>671.5</ele>
        <time>2026-05-20T10:03:16Z</time>
      </trkpt>
      <trkpt lat="43.22935" lon="5.95889">
        <ele>670.6</ele>
        <time>2026-05-20T10:03:48Z</time>
      </trkpt>
      <trkpt lat="43.2292" lon="5.95871">
        <ele>671.4</ele>
        <time>2026-05-20T10:04:14Z</time>
      </trkpt>
      <trkpt lat="43.22908" lon="5.95847">
        <ele>673.5</ele>
        <time>2026-05-20T10:04:39Z</time>
      </trkpt>
      <trkpt lat="43.22898" lon="5.95818">
        <ele>675</ele>
        <time>2026-05-20T10:05:10Z</time>
      </trkpt>
      <trkpt lat="43.22883" lon="5.95795">
        <ele>675.4</ele>
        <time>2026-05-20T10:05:35Z</time>
      </trkpt>
      <trkpt lat="43.22876" lon="5.95768">
        <ele>675.8</ele>
        <time>2026-05-20T10:05:58Z</time>
      </trkpt>
      <trkpt lat="43.22864" lon="5.95744">
        <ele>675.5</ele>
        <time>2026-05-20T10:06:20Z</time>
      </trkpt>
      <trkpt lat="43.22851" lon="5.95721">
        <ele>674.3</ele>
        <time>2026-05-20T10:06:43Z</time>
      </trkpt>
      <trkpt lat="43.22839" lon="5.95698">
        <ele>673.4</ele>
        <time>2026-05-20T10:07:07Z</time>
      </trkpt>
      <trkpt lat="43.2283" lon="5.95674">
        <ele>671.5</ele>
        <time>2026-05-20T10:07:31Z</time>
      </trkpt>
      <trkpt lat="43.22818" lon="5.95652">
        <ele>669.1</ele>
        <time>2026-05-20T10:07:57Z</time>
      </trkpt>
      <trkpt lat="43.22801" lon="5.95638">
        <ele>666.8</ele>
        <time>2026-05-20T10:08:22Z</time>
      </trkpt>
      <trkpt lat="43.22784" lon="5.95627">
        <ele>665.1</ele>
        <time>2026-05-20T10:08:49Z</time>
      </trkpt>
      <trkpt lat="43.22763" lon="5.95629">
        <ele>664.8</ele>
        <time>2026-05-20T10:09:13Z</time>
      </trkpt>
      <trkpt lat="43.22743" lon="5.95629">
        <ele>664.4</ele>
        <time>2026-05-20T10:09:36Z</time>
      </trkpt>
      <trkpt lat="43.22722" lon="5.9563">
        <ele>663.7</ele>
        <time>2026-05-20T10:10:00Z</time>
      </trkpt>
      <trkpt lat="43.22702" lon="5.95632">
        <ele>663.1</ele>
        <time>2026-05-20T10:10:23Z</time>
      </trkpt>
      <trkpt lat="43.22681" lon="5.95639">
        <ele>662.5</ele>
        <time>2026-05-20T10:11:06Z</time>
      </trkpt>
      <trkpt lat="43.22675" lon="5.95661">
        <ele>663.3</ele>
        <time>2026-05-20T10:12:24Z</time>
      </trkpt>
      <trkpt lat="43.22675" lon="5.95655">
        <ele>663</ele>
        <time>2026-05-20T10:13:11Z</time>
      </trkpt>
      <trkpt lat="43.2266" lon="5.95636">
        <ele>662</ele>
        <time>2026-05-20T10:13:47Z</time>
      </trkpt>
      <trkpt lat="43.22641" lon="5.95633">
        <ele>662</ele>
        <time>2026-05-20T10:14:07Z</time>
      </trkpt>
      <trkpt lat="43.2262" lon="5.95636">
        <ele>661.2</ele>
        <time>2026-05-20T10:14:28Z</time>
      </trkpt>
      <trkpt lat="43.22602" lon="5.95632">
        <ele>660.3</ele>
        <time>2026-05-20T10:14:49Z</time>
      </trkpt>
      <trkpt lat="43.22584" lon="5.95618">
        <ele>658.5</ele>
        <time>2026-05-20T10:15:12Z</time>
      </trkpt>
      <trkpt lat="43.22563" lon="5.9561">
        <ele>658</ele>
        <time>2026-05-20T10:15:35Z</time>
      </trkpt>
      <trkpt lat="43.22543" lon="5.95616">
        <ele>656.6</ele>
        <time>2026-05-20T10:15:58Z</time>
      </trkpt>
      <trkpt lat="43.22521" lon="5.95618">
        <ele>654.8</ele>
        <time>2026-05-20T10:16:22Z</time>
      </trkpt>
      <trkpt lat="43.22501" lon="5.9563">
        <ele>654</ele>
        <time>2026-05-20T10:16:53Z</time>
      </trkpt>
      <trkpt lat="43.22478" lon="5.95626">
        <ele>651</ele>
        <time>2026-05-20T10:17:24Z</time>
      </trkpt>
      <trkpt lat="43.22458" lon="5.95615">
        <ele>647.3</ele>
        <time>2026-05-20T10:17:51Z</time>
      </trkpt>
      <trkpt lat="43.22438" lon="5.95603">
        <ele>646.2</ele>
        <time>2026-05-20T10:18:21Z</time>
      </trkpt>
      <trkpt lat="43.22423" lon="5.95582">
        <ele>645.1</ele>
        <time>2026-05-20T10:19:05Z</time>
      </trkpt>
      <trkpt lat="43.22416" lon="5.95571">
        <ele>645.5</ele>
        <time>2026-05-20T10:38:48Z</time>
      </trkpt>
      <trkpt lat="43.22423" lon="5.95563">
        <ele>645.9</ele>
        <time>2026-05-20T11:31:23Z</time>
      </trkpt>
      <trkpt lat="43.22419" lon="5.95595">
        <ele>646.6</ele>
        <time>2026-05-20T11:34:05Z</time>
      </trkpt>
      <trkpt lat="43.22398" lon="5.95582">
        <ele>647.7</ele>
        <time>2026-05-20T11:34:42Z</time>
      </trkpt>
      <trkpt lat="43.22396" lon="5.95557">
        <ele>647.5</ele>
        <time>2026-05-20T11:35:30Z</time>
      </trkpt>
      <trkpt lat="43.22425" lon="5.95547">
        <ele>647.3</ele>
        <time>2026-05-20T11:36:26Z</time>
      </trkpt>
      <trkpt lat="43.22439" lon="5.9551">
        <ele>651.2</ele>
        <time>2026-05-20T11:37:11Z</time>
      </trkpt>
      <trkpt lat="43.22437" lon="5.95471">
        <ele>656.1</ele>
        <time>2026-05-20T11:38:04Z</time>
      </trkpt>
      <trkpt lat="43.22444" lon="5.95438">
        <ele>656.8</ele>
        <time>2026-05-20T11:38:54Z</time>
      </trkpt>
      <trkpt lat="43.22472" lon="5.95393">
        <ele>654.3</ele>
        <time>2026-05-20T11:39:53Z</time>
      </trkpt>
      <trkpt lat="43.22501" lon="5.95354">
        <ele>650.5</ele>
        <time>2026-05-20T11:41:29Z</time>
      </trkpt>
      <trkpt lat="43.22512" lon="5.95311">
        <ele>645.5</ele>
        <time>2026-05-20T11:42:34Z</time>
      </trkpt>
      <trkpt lat="43.22524" lon="5.95271">
        <ele>638.3</ele>
        <time>2026-05-20T11:44:02Z</time>
      </trkpt>
      <trkpt lat="43.22543" lon="5.95237">
        <ele>633.7</ele>
        <time>2026-05-20T11:46:36Z</time>
      </trkpt>
      <trkpt lat="43.22573" lon="5.95203">
        <ele>629.2</ele>
        <time>2026-05-20T11:50:30Z</time>
      </trkpt>
      <trkpt lat="43.22596" lon="5.95177">
        <ele>629.2</ele>
        <time>2026-05-20T11:51:42Z</time>
      </trkpt>
      <trkpt lat="43.22626" lon="5.95155">
        <ele>630.7</ele>
        <time>2026-05-20T11:52:57Z</time>
      </trkpt>
      <trkpt lat="43.22653" lon="5.95153">
        <ele>633.5</ele>
        <time>2026-05-20T11:53:49Z</time>
      </trkpt>
      <trkpt lat="43.22672" lon="5.95147">
        <ele>632.2</ele>
        <time>2026-05-20T11:54:49Z</time>
      </trkpt>
      <trkpt lat="43.22686" lon="5.95162">
        <ele>636.1</ele>
        <time>2026-05-20T11:56:24Z</time>
      </trkpt>
      <trkpt lat="43.22727" lon="5.95179">
        <ele>639.3</ele>
        <time>2026-05-20T11:57:57Z</time>
      </trkpt>
      <trkpt lat="43.22757" lon="5.95194">
        <ele>641.8</ele>
        <time>2026-05-20T11:59:00Z</time>
      </trkpt>
      <trkpt lat="43.2278" lon="5.95221">
        <ele>640.8</ele>
        <time>2026-05-20T12:00:20Z</time>
      </trkpt>
      <trkpt lat="43.22788" lon="5.95193">
        <ele>638.1</ele>
        <time>2026-05-20T12:01:21Z</time>
      </trkpt>
      <trkpt lat="43.2279" lon="5.95147">
        <ele>633.8</ele>
        <time>2026-05-20T12:02:39Z</time>
      </trkpt>
      <trkpt lat="43.22764" lon="5.95138">
        <ele>631.5</ele>
        <time>2026-05-20T12:03:46Z</time>
      </trkpt>
      <trkpt lat="43.2275" lon="5.9511">
        <ele>624.9</ele>
        <time>2026-05-20T12:04:38Z</time>
      </trkpt>
      <trkpt lat="43.22743" lon="5.95074">
        <ele>620.3</ele>
        <time>2026-05-20T12:05:37Z</time>
      </trkpt>
      <trkpt lat="43.2274" lon="5.95038">
        <ele>618</ele>
        <time>2026-05-20T12:06:24Z</time>
      </trkpt>
      <trkpt lat="43.22723" lon="5.95009">
        <ele>610.3</ele>
        <time>2026-05-20T12:07:05Z</time>
      </trkpt>
      <trkpt lat="43.22713" lon="5.94977">
        <ele>606.1</ele>
        <time>2026-05-20T12:07:54Z</time>
      </trkpt>
      <trkpt lat="43.22701" lon="5.94946">
        <ele>601.4</ele>
        <time>2026-05-20T12:08:45Z</time>
      </trkpt>
      <trkpt lat="43.22685" lon="5.94923">
        <ele>596</ele>
        <time>2026-05-20T12:09:25Z</time>
      </trkpt>
      <trkpt lat="43.22666" lon="5.94901">
        <ele>594</ele>
        <time>2026-05-20T12:10:12Z</time>
      </trkpt>
      <trkpt lat="43.22652" lon="5.94876">
        <ele>595.3</ele>
        <time>2026-05-20T12:10:44Z</time>
      </trkpt>
      <trkpt lat="43.2265" lon="5.94849">
        <ele>597.8</ele>
        <time>2026-05-20T12:11:36Z</time>
      </trkpt>
      <trkpt lat="43.22665" lon="5.94829">
        <ele>597.1</ele>
        <time>2026-05-20T12:12:03Z</time>
      </trkpt>
      <trkpt lat="43.22684" lon="5.94815">
        <ele>598</ele>
        <time>2026-05-20T12:12:35Z</time>
      </trkpt>
      <trkpt lat="43.22707" lon="5.94811">
        <ele>597.4</ele>
        <time>2026-05-20T12:13:04Z</time>
      </trkpt>
      <trkpt lat="43.22729" lon="5.948">
        <ele>597.3</ele>
        <time>2026-05-20T12:13:36Z</time>
      </trkpt>
      <trkpt lat="43.22747" lon="5.94782">
        <ele>596.4</ele>
        <time>2026-05-20T12:14:18Z</time>
      </trkpt>
      <trkpt lat="43.22761" lon="5.94766">
        <ele>596.7</ele>
        <time>2026-05-20T12:14:52Z</time>
      </trkpt>
      <trkpt lat="43.22776" lon="5.94747">
        <ele>597.5</ele>
        <time>2026-05-20T12:15:17Z</time>
      </trkpt>
      <trkpt lat="43.22767" lon="5.94728">
        <ele>600.4</ele>
        <time>2026-05-20T12:16:28Z</time>
      </trkpt>
      <trkpt lat="43.22745" lon="5.94708">
        <ele>605.1</ele>
        <time>2026-05-20T12:17:11Z</time>
      </trkpt>
      <trkpt lat="43.22725" lon="5.94689">
        <ele>608.7</ele>
        <time>2026-05-20T12:17:55Z</time>
      </trkpt>
      <trkpt lat="43.22707" lon="5.94676">
        <ele>609.7</ele>
        <time>2026-05-20T12:18:29Z</time>
      </trkpt>
      <trkpt lat="43.22686" lon="5.94662">
        <ele>609.7</ele>
        <time>2026-05-20T12:19:13Z</time>
      </trkpt>
      <trkpt lat="43.22673" lon="5.94641">
        <ele>610.1</ele>
        <time>2026-05-20T12:19:48Z</time>
      </trkpt>
      <trkpt lat="43.22658" lon="5.94618">
        <ele>612.3</ele>
        <time>2026-05-20T12:20:26Z</time>
      </trkpt>
      <trkpt lat="43.22633" lon="5.94618">
        <ele>613.8</ele>
        <time>2026-05-20T12:21:09Z</time>
      </trkpt>
      <trkpt lat="43.22613" lon="5.94603">
        <ele>614</ele>
        <time>2026-05-20T12:21:43Z</time>
      </trkpt>
      <trkpt lat="43.22616" lon="5.94594">
        <ele>614</ele>
        <time>2026-05-20T12:25:44Z</time>
      </trkpt>
      <trkpt lat="43.22634" lon="5.94579">
        <ele>614</ele>
        <time>2026-05-20T12:26:11Z</time>
      </trkpt>
      <trkpt lat="43.22653" lon="5.94564">
        <ele>614.4</ele>
        <time>2026-05-20T12:26:38Z</time>
      </trkpt>
      <trkpt lat="43.2266" lon="5.94535">
        <ele>615.7</ele>
        <time>2026-05-20T12:27:05Z</time>
      </trkpt>
      <trkpt lat="43.22658" lon="5.94506">
        <ele>616.8</ele>
        <time>2026-05-20T12:27:31Z</time>
      </trkpt>
      <trkpt lat="43.22647" lon="5.94481">
        <ele>617</ele>
        <time>2026-05-20T12:27:59Z</time>
      </trkpt>
      <trkpt lat="43.22665" lon="5.94468">
        <ele>617</ele>
        <time>2026-05-20T12:28:24Z</time>
      </trkpt>
      <trkpt lat="43.22688" lon="5.94455">
        <ele>617</ele>
        <time>2026-05-20T12:28:52Z</time>
      </trkpt>
      <trkpt lat="43.22714" lon="5.94444">
        <ele>616.3</ele>
        <time>2026-05-20T12:29:23Z</time>
      </trkpt>
      <trkpt lat="43.22739" lon="5.94435">
        <ele>615.4</ele>
        <time>2026-05-20T12:29:55Z</time>
      </trkpt>
      <trkpt lat="43.2277" lon="5.94433">
        <ele>614.4</ele>
        <time>2026-05-20T12:30:31Z</time>
      </trkpt>
      <trkpt lat="43.22791" lon="5.94421">
        <ele>614.2</ele>
        <time>2026-05-20T12:30:57Z</time>
      </trkpt>
      <trkpt lat="43.22807" lon="5.94398">
        <ele>614.4</ele>
        <time>2026-05-20T12:31:26Z</time>
      </trkpt>
      <trkpt lat="43.22826" lon="5.94383">
        <ele>614.1</ele>
        <time>2026-05-20T12:31:52Z</time>
      </trkpt>
      <trkpt lat="43.22845" lon="5.94367">
        <ele>613.9</ele>
        <time>2026-05-20T12:32:20Z</time>
      </trkpt>
      <trkpt lat="43.22861" lon="5.94345">
        <ele>615</ele>
        <time>2026-05-20T12:32:47Z</time>
      </trkpt>
      <trkpt lat="43.22874" lon="5.94322">
        <ele>615</ele>
        <time>2026-05-20T12:33:14Z</time>
      </trkpt>
      <trkpt lat="43.22884" lon="5.94294">
        <ele>614.6</ele>
        <time>2026-05-20T12:33:41Z</time>
      </trkpt>
      <trkpt lat="43.22898" lon="5.94266">
        <ele>614.8</ele>
        <time>2026-05-20T12:34:12Z</time>
      </trkpt>
      <trkpt lat="43.2291" lon="5.94238">
        <ele>615.5</ele>
        <time>2026-05-20T12:34:39Z</time>
      </trkpt>
      <trkpt lat="43.22921" lon="5.94215">
        <ele>616.2</ele>
        <time>2026-05-20T12:35:01Z</time>
      </trkpt>
      <trkpt lat="43.22938" lon="5.94197">
        <ele>615.5</ele>
        <time>2026-05-20T12:35:26Z</time>
      </trkpt>
      <trkpt lat="43.22957" lon="5.94182">
        <ele>614.6</ele>
        <time>2026-05-20T12:35:54Z</time>
      </trkpt>
      <trkpt lat="43.22977" lon="5.94163">
        <ele>612.9</ele>
        <time>2026-05-20T12:36:26Z</time>
      </trkpt>
      <trkpt lat="43.22986" lon="5.94135">
        <ele>610.8</ele>
        <time>2026-05-20T12:36:53Z</time>
      </trkpt>
      <trkpt lat="43.22998" lon="5.9411">
        <ele>609.9</ele>
        <time>2026-05-20T12:37:22Z</time>
      </trkpt>
      <trkpt lat="43.23005" lon="5.94082">
        <ele>608.7</ele>
        <time>2026-05-20T12:37:51Z</time>
      </trkpt>
      <trkpt lat="43.23017" lon="5.94056">
        <ele>608.4</ele>
        <time>2026-05-20T12:38:20Z</time>
      </trkpt>
      <trkpt lat="43.23021" lon="5.94025">
        <ele>608.1</ele>
        <time>2026-05-20T12:38:49Z</time>
      </trkpt>
      <trkpt lat="43.23022" lon="5.93996">
        <ele>609.3</ele>
        <time>2026-05-20T12:39:17Z</time>
      </trkpt>
      <trkpt lat="43.23032" lon="5.93971">
        <ele>609.3</ele>
        <time>2026-05-20T12:39:42Z</time>
      </trkpt>
      <trkpt lat="43.23044" lon="5.93944">
        <ele>610.1</ele>
        <time>2026-05-20T12:40:07Z</time>
      </trkpt>
      <trkpt lat="43.23048" lon="5.93916">
        <ele>610.7</ele>
        <time>2026-05-20T12:40:30Z</time>
      </trkpt>
      <trkpt lat="43.23045" lon="5.93886">
        <ele>611.1</ele>
        <time>2026-05-20T12:40:53Z</time>
      </trkpt>
      <trkpt lat="43.23043" lon="5.93859">
        <ele>612</ele>
        <time>2026-05-20T12:41:15Z</time>
      </trkpt>
      <trkpt lat="43.23038" lon="5.93831">
        <ele>612.1</ele>
        <time>2026-05-20T12:41:37Z</time>
      </trkpt>
      <trkpt lat="43.2304" lon="5.93806">
        <ele>613.1</ele>
        <time>2026-05-20T12:42:06Z</time>
      </trkpt>
      <trkpt lat="43.23046" lon="5.93778">
        <ele>613.3</ele>
        <time>2026-05-20T12:42:30Z</time>
      </trkpt>
      <trkpt lat="43.23052" lon="5.93752">
        <ele>614</ele>
        <time>2026-05-20T12:42:52Z</time>
      </trkpt>
      <trkpt lat="43.23057" lon="5.93724">
        <ele>615</ele>
        <time>2026-05-20T12:43:16Z</time>
      </trkpt>
      <trkpt lat="43.23066" lon="5.93702">
        <ele>615.6</ele>
        <time>2026-05-20T12:43:36Z</time>
      </trkpt>
      <trkpt lat="43.23071" lon="5.93674">
        <ele>615.8</ele>
        <time>2026-05-20T12:43:56Z</time>
      </trkpt>
      <trkpt lat="43.23068" lon="5.93645">
        <ele>616.1</ele>
        <time>2026-05-20T12:44:17Z</time>
      </trkpt>
      <trkpt lat="43.23065" lon="5.93618">
        <ele>616.3</ele>
        <time>2026-05-20T12:44:37Z</time>
      </trkpt>
      <trkpt lat="43.23066" lon="5.93588">
        <ele>616.6</ele>
        <time>2026-05-20T12:44:58Z</time>
      </trkpt>
      <trkpt lat="43.23073" lon="5.93565">
        <ele>616.9</ele>
        <time>2026-05-20T12:45:18Z</time>
      </trkpt>
      <trkpt lat="43.23083" lon="5.93539">
        <ele>616</ele>
        <time>2026-05-20T12:45:42Z</time>
      </trkpt>
      <trkpt lat="43.23094" lon="5.93512">
        <ele>615.8</ele>
        <time>2026-05-20T12:46:06Z</time>
      </trkpt>
      <trkpt lat="43.23109" lon="5.93488">
        <ele>615.1</ele>
        <time>2026-05-20T12:46:32Z</time>
      </trkpt>
      <trkpt lat="43.23116" lon="5.9346">
        <ele>615.2</ele>
        <time>2026-05-20T12:46:58Z</time>
      </trkpt>
      <trkpt lat="43.23116" lon="5.93426">
        <ele>614.5</ele>
        <time>2026-05-20T12:47:27Z</time>
      </trkpt>
      <trkpt lat="43.23112" lon="5.93399">
        <ele>613.4</ele>
        <time>2026-05-20T12:47:48Z</time>
      </trkpt>
      <trkpt lat="43.23107" lon="5.93365">
        <ele>613.5</ele>
        <time>2026-05-20T12:48:16Z</time>
      </trkpt>
      <trkpt lat="43.23108" lon="5.93331">
        <ele>614.5</ele>
        <time>2026-05-20T12:48:43Z</time>
      </trkpt>
      <trkpt lat="43.23116" lon="5.933">
        <ele>614.2</ele>
        <time>2026-05-20T12:49:06Z</time>
      </trkpt>
      <trkpt lat="43.23124" lon="5.93274">
        <ele>615.2</ele>
        <time>2026-05-20T12:49:27Z</time>
      </trkpt>
      <trkpt lat="43.23134" lon="5.93248">
        <ele>616.3</ele>
        <time>2026-05-20T12:49:51Z</time>
      </trkpt>
      <trkpt lat="43.2315" lon="5.93224">
        <ele>616.2</ele>
        <time>2026-05-20T12:50:17Z</time>
      </trkpt>
      <trkpt lat="43.23166" lon="5.93199">
        <ele>615.9</ele>
        <time>2026-05-20T12:50:40Z</time>
      </trkpt>
      <trkpt lat="43.23182" lon="5.93179">
        <ele>615.9</ele>
        <time>2026-05-20T12:51:00Z</time>
      </trkpt>
      <trkpt lat="43.23199" lon="5.93157">
        <ele>615.4</ele>
        <time>2026-05-20T12:51:28Z</time>
      </trkpt>
      <trkpt lat="43.23212" lon="5.93132">
        <ele>615.2</ele>
        <time>2026-05-20T12:51:51Z</time>
      </trkpt>
      <trkpt lat="43.23218" lon="5.93104">
        <ele>614</ele>
        <time>2026-05-20T12:52:14Z</time>
      </trkpt>
      <trkpt lat="43.23232" lon="5.93078">
        <ele>613.4</ele>
        <time>2026-05-20T12:52:39Z</time>
      </trkpt>
      <trkpt lat="43.23251" lon="5.93059">
        <ele>613.2</ele>
        <time>2026-05-20T12:53:02Z</time>
      </trkpt>
      <trkpt lat="43.2327" lon="5.93041">
        <ele>613.3</ele>
        <time>2026-05-20T12:53:24Z</time>
      </trkpt>
      <trkpt lat="43.23289" lon="5.93036">
        <ele>613.4</ele>
        <time>2026-05-20T12:53:46Z</time>
      </trkpt>
      <trkpt lat="43.233" lon="5.93015">
        <ele>611.9</ele>
        <time>2026-05-20T12:54:09Z</time>
      </trkpt>
      <trkpt lat="43.233" lon="5.92992">
        <ele>610.5</ele>
        <time>2026-05-20T12:56:02Z</time>
      </trkpt>
      <trkpt lat="43.23316" lon="5.93006">
        <ele>610.3</ele>
        <time>2026-05-20T12:58:58Z</time>
      </trkpt>
      <trkpt lat="43.23336" lon="5.92991">
        <ele>608.6</ele>
        <time>2026-05-20T12:59:29Z</time>
      </trkpt>
      <trkpt lat="43.23355" lon="5.92977">
        <ele>609</ele>
        <time>2026-05-20T12:59:53Z</time>
      </trkpt>
      <trkpt lat="43.23369" lon="5.92954">
        <ele>607.3</ele>
        <time>2026-05-20T13:00:17Z</time>
      </trkpt>
      <trkpt lat="43.23385" lon="5.92936">
        <ele>605.5</ele>
        <time>2026-05-20T13:00:40Z</time>
      </trkpt>
      <trkpt lat="43.23404" lon="5.92931">
        <ele>605.6</ele>
        <time>2026-05-20T13:01:01Z</time>
      </trkpt>
      <trkpt lat="43.23425" lon="5.92921">
        <ele>604.3</ele>
        <time>2026-05-20T13:01:24Z</time>
      </trkpt>
      <trkpt lat="43.23444" lon="5.92911">
        <ele>602.6</ele>
        <time>2026-05-20T13:01:47Z</time>
      </trkpt>
      <trkpt lat="43.2346" lon="5.92891">
        <ele>600.6</ele>
        <time>2026-05-20T13:02:10Z</time>
      </trkpt>
      <trkpt lat="43.23473" lon="5.9287">
        <ele>600</ele>
        <time>2026-05-20T13:02:30Z</time>
      </trkpt>
      <trkpt lat="43.23488" lon="5.92851">
        <ele>600</ele>
        <time>2026-05-20T13:03:25Z</time>
      </trkpt>
      <trkpt lat="43.23502" lon="5.92831">
        <ele>599.8</ele>
        <time>2026-05-20T13:03:46Z</time>
      </trkpt>
      <trkpt lat="43.23514" lon="5.92808">
        <ele>597.9</ele>
        <time>2026-05-20T13:04:07Z</time>
      </trkpt>
      <trkpt lat="43.23524" lon="5.92783">
        <ele>596.3</ele>
        <time>2026-05-20T13:04:28Z</time>
      </trkpt>
      <trkpt lat="43.23537" lon="5.92761">
        <ele>596.3</ele>
        <time>2026-05-20T13:04:48Z</time>
      </trkpt>
      <trkpt lat="43.2355" lon="5.9274">
        <ele>597.6</ele>
        <time>2026-05-20T13:05:09Z</time>
      </trkpt>
      <trkpt lat="43.23565" lon="5.9272">
        <ele>600.6</ele>
        <time>2026-05-20T13:05:30Z</time>
      </trkpt>
      <trkpt lat="43.23564" lon="5.927">
        <ele>602.7</ele>
        <time>2026-05-20T13:05:54Z</time>
      </trkpt>
      <trkpt lat="43.23549" lon="5.92684">
        <ele>603.5</ele>
        <time>2026-05-20T13:06:16Z</time>
      </trkpt>
      <trkpt lat="43.23542" lon="5.9266">
        <ele>604.2</ele>
        <time>2026-05-20T13:06:35Z</time>
      </trkpt>
      <trkpt lat="43.23535" lon="5.92634">
        <ele>603.6</ele>
        <time>2026-05-20T13:06:55Z</time>
      </trkpt>
      <trkpt lat="43.23534" lon="5.92608">
        <ele>600.2</ele>
        <time>2026-05-20T13:07:17Z</time>
      </trkpt>
      <trkpt lat="43.2353" lon="5.92581">
        <ele>600.1</ele>
        <time>2026-05-20T13:07:36Z</time>
      </trkpt>
      <trkpt lat="43.23523" lon="5.92557">
        <ele>601.1</ele>
        <time>2026-05-20T13:07:54Z</time>
      </trkpt>
      <trkpt lat="43.23517" lon="5.9253">
        <ele>601.9</ele>
        <time>2026-05-20T13:08:12Z</time>
      </trkpt>
      <trkpt lat="43.23513" lon="5.92505">
        <ele>602.8</ele>
        <time>2026-05-20T13:08:32Z</time>
      </trkpt>
      <trkpt lat="43.23494" lon="5.92495">
        <ele>602.6</ele>
        <time>2026-05-20T13:08:51Z</time>
      </trkpt>
      <trkpt lat="43.23482" lon="5.92471">
        <ele>602</ele>
        <time>2026-05-20T13:09:11Z</time>
      </trkpt>
      <trkpt lat="43.23484" lon="5.92444">
        <ele>602.6</ele>
        <time>2026-05-20T13:09:31Z</time>
      </trkpt>
      <trkpt lat="43.23488" lon="5.92415">
        <ele>602.6</ele>
        <time>2026-05-20T13:09:53Z</time>
      </trkpt>
      <trkpt lat="43.23501" lon="5.92389">
        <ele>604</ele>
        <time>2026-05-20T13:10:14Z</time>
      </trkpt>
      <trkpt lat="43.2351" lon="5.92361">
        <ele>604</ele>
        <time>2026-05-20T13:10:35Z</time>
      </trkpt>
      <trkpt lat="43.23519" lon="5.92334">
        <ele>604</ele>
        <time>2026-05-20T13:10:56Z</time>
      </trkpt>
      <trkpt lat="43.2353" lon="5.92309">
        <ele>604.1</ele>
        <time>2026-05-20T13:11:18Z</time>
      </trkpt>
      <trkpt lat="43.23535" lon="5.92281">
        <ele>604.9</ele>
        <time>2026-05-20T13:11:37Z</time>
      </trkpt>
      <trkpt lat="43.23524" lon="5.92255">
        <ele>605.2</ele>
        <time>2026-05-20T13:11:56Z</time>
      </trkpt>
      <trkpt lat="43.23506" lon="5.9224">
        <ele>606.2</ele>
        <time>2026-05-20T13:12:15Z</time>
      </trkpt>
      <trkpt lat="43.23486" lon="5.92242">
        <ele>606.1</ele>
        <time>2026-05-20T13:12:35Z</time>
      </trkpt>
      <trkpt lat="43.23465" lon="5.9225">
        <ele>606</ele>
        <time>2026-05-20T13:12:55Z</time>
      </trkpt>
      <trkpt lat="43.23444" lon="5.9224">
        <ele>606.4</ele>
        <time>2026-05-20T13:13:16Z</time>
      </trkpt>
      <trkpt lat="43.23427" lon="5.92222">
        <ele>606.4</ele>
        <time>2026-05-20T13:13:35Z</time>
      </trkpt>
      <trkpt lat="43.23415" lon="5.92201">
        <ele>606.3</ele>
        <time>2026-05-20T13:13:54Z</time>
      </trkpt>
      <trkpt lat="43.23414" lon="5.92174">
        <ele>607.7</ele>
        <time>2026-05-20T13:14:14Z</time>
      </trkpt>
      <trkpt lat="43.23404" lon="5.92149">
        <ele>608.4</ele>
        <time>2026-05-20T13:14:33Z</time>
      </trkpt>
      <trkpt lat="43.23384" lon="5.92141">
        <ele>609.2</ele>
        <time>2026-05-20T13:14:53Z</time>
      </trkpt>
      <trkpt lat="43.23364" lon="5.92127">
        <ele>609.9</ele>
        <time>2026-05-20T13:15:13Z</time>
      </trkpt>
      <trkpt lat="43.23345" lon="5.9212">
        <ele>611.6</ele>
        <time>2026-05-20T13:15:33Z</time>
      </trkpt>
      <trkpt lat="43.23323" lon="5.9213">
        <ele>613.2</ele>
        <time>2026-05-20T13:15:55Z</time>
      </trkpt>
      <trkpt lat="43.23305" lon="5.92118">
        <ele>614.3</ele>
        <time>2026-05-20T13:16:16Z</time>
      </trkpt>
      <trkpt lat="43.23287" lon="5.92104">
        <ele>614.7</ele>
        <time>2026-05-20T13:16:36Z</time>
      </trkpt>
      <trkpt lat="43.23268" lon="5.92098">
        <ele>615.7</ele>
        <time>2026-05-20T13:16:55Z</time>
      </trkpt>
      <trkpt lat="43.23246" lon="5.92098">
        <ele>616.9</ele>
        <time>2026-05-20T13:17:16Z</time>
      </trkpt>
      <trkpt lat="43.23225" lon="5.92099">
        <ele>616.6</ele>
        <time>2026-05-20T13:17:35Z</time>
      </trkpt>
      <trkpt lat="43.23207" lon="5.92107">
        <ele>616.8</ele>
        <time>2026-05-20T13:17:53Z</time>
      </trkpt>
      <trkpt lat="43.23187" lon="5.92107">
        <ele>617.1</ele>
        <time>2026-05-20T13:18:12Z</time>
      </trkpt>
      <trkpt lat="43.23168" lon="5.92097">
        <ele>617</ele>
        <time>2026-05-20T13:18:32Z</time>
      </trkpt>
      <trkpt lat="43.23148" lon="5.92104">
        <ele>617</ele>
        <time>2026-05-20T13:18:51Z</time>
      </trkpt>
      <trkpt lat="43.23129" lon="5.92113">
        <ele>617.1</ele>
        <time>2026-05-20T13:19:11Z</time>
      </trkpt>
      <trkpt lat="43.23108" lon="5.92108">
        <ele>617.1</ele>
        <time>2026-05-20T13:19:31Z</time>
      </trkpt>
      <trkpt lat="43.23087" lon="5.92103">
        <ele>617.9</ele>
        <time>2026-05-20T13:19:51Z</time>
      </trkpt>
      <trkpt lat="43.23066" lon="5.92103">
        <ele>618</ele>
        <time>2026-05-20T13:20:17Z</time>
      </trkpt>
      <trkpt lat="43.23046" lon="5.92112">
        <ele>618.3</ele>
        <time>2026-05-20T13:20:39Z</time>
      </trkpt>
      <trkpt lat="43.23026" lon="5.92118">
        <ele>618.8</ele>
        <time>2026-05-20T13:21:01Z</time>
      </trkpt>
      <trkpt lat="43.23018" lon="5.92121">
        <ele>619</ele>
        <time>2026-05-20T13:22:09Z</time>
      </trkpt>
    </trkseg>
  </trk>
</gpx>